sensor_id;sensor_type;location;lat;lon;timestamp;P1;durP1;ratioP1;P2;durP2;ratioP2
81801;SDS011;71199;52.490;5.448;2024-02-26T00:02:04;11.88;;;6.07;;
81801;SDS011;71199;52.490;5.448;2024-02-26T00:04:29;11.52;;;6.40;;
81801;SDS011;71199;52.490;5.448;2024-02-26T00:06:55;15.63;;;6.53;;
81801;SDS011;71199;52.490;5.448;2024-02-26T00:09:21;10.30;;;6.10;;
81801;SDS011;71199;52.490;5.448;2024-02-26T00:11:46;13.55;;;7.38;;
81801;SDS011;71199;52.490;5.448;2024-02-26T00:14:11;13.97;;;6.67;;
81801;SDS011;71199;52.490;5.448;2024-02-26T00:16:39;11.68;;;6.85;;
81801;SDS011;71199;52.490;5.448;2024-02-26T00:19:06;10.02;;;5.30;;
81801;SDS011;71199;52.490;5.448;2024-02-26T00:21:31;14.07;;;6.20;;
81801;SDS011;71199;52.490;5.448;2024-02-26T00:23:56;10.33;;;5.67;;
81801;SDS011;71199;52.490;5.448;2024-02-26T00:26:22;10.90;;;5.82;;
81801;SDS011;71199;52.490;5.448;2024-02-26T00:28:47;8.77;;;5.27;;
81801;SDS011;71199;52.490;5.448;2024-02-26T00:31:12;9.37;;;5.30;;
81801;SDS011;71199;52.490;5.448;2024-02-26T00:33:38;10.00;;;5.78;;
81801;SDS011;71199;52.490;5.448;2024-02-26T00:36:03;10.20;;;5.20;;
81801;SDS011;71199;52.490;5.448;2024-02-26T00:38:29;8.32;;;4.97;;
81801;SDS011;71199;52.490;5.448;2024-02-26T00:40:54;9.30;;;4.53;;
81801;SDS011;71199;52.490;5.448;2024-02-26T00:43:20;8.63;;;4.72;;
81801;SDS011;71199;52.490;5.448;2024-02-26T00:45:45;9.40;;;5.30;;
81801;SDS011;71199;52.490;5.448;2024-02-26T00:48:12;7.80;;;4.88;;
81801;SDS011;71199;52.490;5.448;2024-02-26T00:50:38;8.57;;;4.90;;
81801;SDS011;71199;52.490;5.448;2024-02-26T00:53:04;10.70;;;5.43;;
81801;SDS011;71199;52.490;5.448;2024-02-26T00:55:29;7.90;;;4.70;;
81801;SDS011;71199;52.490;5.448;2024-02-26T00:57:55;11.03;;;5.57;;
81801;SDS011;71199;52.490;5.448;2024-02-26T01:00:20;8.15;;;5.07;;
81801;SDS011;71199;52.490;5.448;2024-02-26T01:02:46;11.80;;;5.82;;
81801;SDS011;71199;52.490;5.448;2024-02-26T01:05:14;10.43;;;6.00;;
81801;SDS011;71199;52.490;5.448;2024-02-26T01:07:41;10.25;;;5.75;;
81801;SDS011;71199;52.490;5.448;2024-02-26T01:10:06;11.47;;;5.87;;
81801;SDS011;71199;52.490;5.448;2024-02-26T01:12:32;12.50;;;5.78;;
81801;SDS011;71199;52.490;5.448;2024-02-26T01:15:02;10.27;;;5.93;;
81801;SDS011;71199;52.490;5.448;2024-02-26T01:17:28;11.25;;;5.70;;
81801;SDS011;71199;52.490;5.448;2024-02-26T01:19:53;8.93;;;5.22;;
81801;SDS011;71199;52.490;5.448;2024-02-26T01:22:19;12.25;;;6.38;;
81801;SDS011;71199;52.490;5.448;2024-02-26T01:24:45;10.77;;;6.18;;
81801;SDS011;71199;52.490;5.448;2024-02-26T01:27:10;9.57;;;6.05;;
81801;SDS011;71199;52.490;5.448;2024-02-26T01:29:36;12.20;;;6.47;;
81801;SDS011;71199;52.490;5.448;2024-02-26T01:32:01;11.07;;;6.70;;
81801;SDS011;71199;52.490;5.448;2024-02-26T01:36:54;14.33;;;7.10;;
81801;SDS011;71199;52.490;5.448;2024-02-26T01:39:21;12.52;;;6.50;;
81801;SDS011;71199;52.490;5.448;2024-02-26T01:41:47;14.65;;;7.57;;
81801;SDS011;71199;52.490;5.448;2024-02-26T01:44:12;13.65;;;7.28;;
81801;SDS011;71199;52.490;5.448;2024-02-26T01:46:41;12.25;;;7.07;;
81801;SDS011;71199;52.490;5.448;2024-02-26T01:49:07;12.10;;;6.68;;
81801;SDS011;71199;52.490;5.448;2024-02-26T01:51:37;14.07;;;7.68;;
81801;SDS011;71199;52.490;5.448;2024-02-26T01:54:04;12.60;;;7.22;;
81801;SDS011;71199;52.490;5.448;2024-02-26T01:56:34;13.18;;;7.35;;
81801;SDS011;71199;52.490;5.448;2024-02-26T01:59:01;12.27;;;6.78;;
81801;SDS011;71199;52.490;5.448;2024-02-26T02:01:27;13.57;;;7.63;;
81801;SDS011;71199;52.490;5.448;2024-02-26T02:06:22;11.20;;;6.53;;
81801;SDS011;71199;52.490;5.448;2024-02-26T02:08:48;13.77;;;7.05;;
81801;SDS011;71199;52.490;5.448;2024-02-26T02:11:14;13.15;;;7.15;;
81801;SDS011;71199;52.490;5.448;2024-02-26T02:13:40;11.07;;;6.65;;
81801;SDS011;71199;52.490;5.448;2024-02-26T02:16:05;14.23;;;7.68;;
81801;SDS011;71199;52.490;5.448;2024-02-26T02:18:31;16.02;;;6.93;;
81801;SDS011;71199;52.490;5.448;2024-02-26T02:20:59;12.60;;;7.15;;
81801;SDS011;71199;52.490;5.448;2024-02-26T02:23:25;13.43;;;7.68;;
81801;SDS011;71199;52.490;5.448;2024-02-26T02:25:51;14.75;;;7.80;;
81801;SDS011;71199;52.490;5.448;2024-02-26T02:28:17;14.43;;;8.07;;
81801;SDS011;71199;52.490;5.448;2024-02-26T02:30:42;15.40;;;7.95;;
81801;SDS011;71199;52.490;5.448;2024-02-26T02:33:08;14.60;;;8.13;;
81801;SDS011;71199;52.490;5.448;2024-02-26T02:35:34;14.63;;;7.60;;
81801;SDS011;71199;52.490;5.448;2024-02-26T02:37:59;16.43;;;8.37;;
81801;SDS011;71199;52.490;5.448;2024-02-26T02:40:25;14.40;;;8.10;;
81801;SDS011;71199;52.490;5.448;2024-02-26T02:42:50;12.32;;;6.22;;
81801;SDS011;71199;52.490;5.448;2024-02-26T02:45:15;12.87;;;6.27;;
81801;SDS011;71199;52.490;5.448;2024-02-26T02:47:41;14.90;;;7.77;;
81801;SDS011;71199;52.490;5.448;2024-02-26T02:50:06;14.60;;;7.37;;
81801;SDS011;71199;52.490;5.448;2024-02-26T02:52:32;15.20;;;7.25;;
81801;SDS011;71199;52.490;5.448;2024-02-26T02:54:57;14.73;;;7.27;;
81801;SDS011;71199;52.490;5.448;2024-02-26T02:57:23;16.65;;;7.28;;
81801;SDS011;71199;52.490;5.448;2024-02-26T02:59:48;13.75;;;7.03;;
81801;SDS011;71199;52.490;5.448;2024-02-26T03:02:14;14.37;;;6.87;;
81801;SDS011;71199;52.490;5.448;2024-02-26T03:04:39;17.37;;;8.07;;
81801;SDS011;71199;52.490;5.448;2024-02-26T03:07:05;15.07;;;7.67;;
81801;SDS011;71199;52.490;5.448;2024-02-26T03:09:30;15.38;;;7.70;;
81801;SDS011;71199;52.490;5.448;2024-02-26T03:11:56;14.82;;;8.10;;
81801;SDS011;71199;52.490;5.448;2024-02-26T03:14:21;12.70;;;7.57;;
81801;SDS011;71199;52.490;5.448;2024-02-26T03:16:46;18.40;;;8.00;;
81801;SDS011;71199;52.490;5.448;2024-02-26T03:19:15;18.90;;;8.27;;
81801;SDS011;71199;52.490;5.448;2024-02-26T03:21:41;15.68;;;8.15;;
81801;SDS011;71199;52.490;5.448;2024-02-26T03:24:07;20.70;;;8.32;;
81801;SDS011;71199;52.490;5.448;2024-02-26T03:26:35;15.65;;;8.13;;
81801;SDS011;71199;52.490;5.448;2024-02-26T03:29:01;21.40;;;9.63;;
81801;SDS011;71199;52.490;5.448;2024-02-26T03:31:27;18.23;;;8.90;;
81801;SDS011;71199;52.490;5.448;2024-02-26T03:33:52;19.52;;;8.85;;
81801;SDS011;71199;52.490;5.448;2024-02-26T03:36:18;19.17;;;9.60;;
81801;SDS011;71199;52.490;5.448;2024-02-26T03:38:43;16.00;;;7.30;;
81801;SDS011;71199;52.490;5.448;2024-02-26T03:41:09;17.48;;;8.57;;
81801;SDS011;71199;52.490;5.448;2024-02-26T03:43:34;17.58;;;8.32;;
81801;SDS011;71199;52.490;5.448;2024-02-26T03:45:59;17.83;;;8.48;;
81801;SDS011;71199;52.490;5.448;2024-02-26T03:48:25;17.23;;;8.90;;
81801;SDS011;71199;52.490;5.448;2024-02-26T03:50:50;16.50;;;8.18;;
81801;SDS011;71199;52.490;5.448;2024-02-26T03:53:16;20.50;;;9.30;;
81801;SDS011;71199;52.490;5.448;2024-02-26T03:55:41;15.65;;;7.60;;
81801;SDS011;71199;52.490;5.448;2024-02-26T03:58:07;19.13;;;8.60;;
81801;SDS011;71199;52.490;5.448;2024-02-26T04:00:33;19.27;;;8.73;;
81801;SDS011;71199;52.490;5.448;2024-02-26T04:02:58;17.50;;;8.57;;
81801;SDS011;71199;52.490;5.448;2024-02-26T04:05:24;21.87;;;9.83;;
81801;SDS011;71199;52.490;5.448;2024-02-26T04:07:49;15.83;;;8.47;;
81801;SDS011;71199;52.490;5.448;2024-02-26T04:10:14;18.15;;;9.88;;
81801;SDS011;71199;52.490;5.448;2024-02-26T04:12:40;21.13;;;9.68;;
81801;SDS011;71199;52.490;5.448;2024-02-26T04:15:09;17.13;;;9.30;;
81801;SDS011;71199;52.490;5.448;2024-02-26T04:17:35;21.50;;;10.43;;
81801;SDS011;71199;52.490;5.448;2024-02-26T04:20:01;26.02;;;10.68;;
81801;SDS011;71199;52.490;5.448;2024-02-26T04:22:27;19.40;;;9.52;;
81801;SDS011;71199;52.490;5.448;2024-02-26T04:24:53;23.52;;;10.55;;
81801;SDS011;71199;52.490;5.448;2024-02-26T04:27:18;27.53;;;13.07;;
81801;SDS011;71199;52.490;5.448;2024-02-26T04:29:43;27.33;;;12.27;;
81801;SDS011;71199;52.490;5.448;2024-02-26T04:32:09;23.70;;;11.15;;
81801;SDS011;71199;52.490;5.448;2024-02-26T04:34:34;24.48;;;11.73;;
81801;SDS011;71199;52.490;5.448;2024-02-26T04:37:00;23.40;;;11.93;;
81801;SDS011;71199;52.490;5.448;2024-02-26T04:39:25;25.77;;;12.47;;
81801;SDS011;71199;52.490;5.448;2024-02-26T04:41:51;24.90;;;11.65;;
81801;SDS011;71199;52.490;5.448;2024-02-26T04:44:16;24.48;;;11.93;;
81801;SDS011;71199;52.490;5.448;2024-02-26T04:46:41;25.63;;;10.93;;
81801;SDS011;71199;52.490;5.448;2024-02-26T04:49:07;19.93;;;9.37;;
81801;SDS011;71199;52.490;5.448;2024-02-26T04:51:32;26.13;;;12.23;;
81801;SDS011;71199;52.490;5.448;2024-02-26T04:53:57;26.42;;;11.50;;
81801;SDS011;71199;52.490;5.448;2024-02-26T04:56:23;25.90;;;11.67;;
81801;SDS011;71199;52.490;5.448;2024-02-26T04:58:48;22.83;;;11.27;;
81801;SDS011;71199;52.490;5.448;2024-02-26T05:01:14;24.77;;;12.45;;
81801;SDS011;71199;52.490;5.448;2024-02-26T05:06:07;24.67;;;11.95;;
81801;SDS011;71199;52.490;5.448;2024-02-26T05:08:34;23.70;;;12.48;;
81801;SDS011;71199;52.490;5.448;2024-02-26T05:11:00;23.77;;;11.50;;
81801;SDS011;71199;52.490;5.448;2024-02-26T05:13:27;25.13;;;12.45;;
81801;SDS011;71199;52.490;5.448;2024-02-26T05:15:53;22.95;;;12.18;;
81801;SDS011;71199;52.490;5.448;2024-02-26T05:18:18;21.85;;;9.90;;
81801;SDS011;71199;52.490;5.448;2024-02-26T05:20:44;24.53;;;12.57;;
81801;SDS011;71199;52.490;5.448;2024-02-26T05:23:09;24.57;;;12.30;;
81801;SDS011;71199;52.490;5.448;2024-02-26T05:25:34;26.80;;;13.40;;
81801;SDS011;71199;52.490;5.448;2024-02-26T05:28:00;26.00;;;12.40;;
81801;SDS011;71199;52.490;5.448;2024-02-26T05:30:25;24.10;;;12.70;;
81801;SDS011;71199;52.490;5.448;2024-02-26T05:32:53;25.58;;;11.70;;
81801;SDS011;71199;52.490;5.448;2024-02-26T05:35:18;25.30;;;12.25;;
81801;SDS011;71199;52.490;5.448;2024-02-26T05:37:44;25.20;;;12.23;;
81801;SDS011;71199;52.490;5.448;2024-02-26T05:40:09;22.43;;;11.50;;
81801;SDS011;71199;52.490;5.448;2024-02-26T05:42:35;21.08;;;11.30;;
81801;SDS011;71199;52.490;5.448;2024-02-26T05:45:01;24.10;;;12.18;;
81801;SDS011;71199;52.490;5.448;2024-02-26T05:47:31;28.40;;;11.50;;
81801;SDS011;71199;52.490;5.448;2024-02-26T05:49:59;22.52;;;10.48;;
81801;SDS011;71199;52.490;5.448;2024-02-26T05:52:25;20.52;;;11.48;;
81801;SDS011;71199;52.490;5.448;2024-02-26T05:54:51;23.23;;;12.30;;
81801;SDS011;71199;52.490;5.448;2024-02-26T05:57:17;23.07;;;11.17;;
81801;SDS011;71199;52.490;5.448;2024-02-26T05:59:43;23.48;;;11.73;;
81801;SDS011;71199;52.490;5.448;2024-02-26T06:02:09;22.40;;;11.63;;
81801;SDS011;71199;52.490;5.448;2024-02-26T06:04:34;21.90;;;9.97;;
81801;SDS011;71199;52.490;5.448;2024-02-26T06:06:59;21.83;;;11.60;;
81801;SDS011;71199;52.490;5.448;2024-02-26T06:09:25;23.47;;;10.50;;
81801;SDS011;71199;52.490;5.448;2024-02-26T06:11:50;25.00;;;11.45;;
81801;SDS011;71199;52.490;5.448;2024-02-26T06:14:16;20.98;;;11.10;;
81801;SDS011;71199;52.490;5.448;2024-02-26T06:16:43;20.80;;;10.35;;
81801;SDS011;71199;52.490;5.448;2024-02-26T06:19:09;19.45;;;10.13;;
81801;SDS011;71199;52.490;5.448;2024-02-26T06:21:34;17.23;;;8.77;;
81801;SDS011;71199;52.490;5.448;2024-02-26T06:24:00;15.57;;;8.53;;
81801;SDS011;71199;52.490;5.448;2024-02-26T06:26:26;20.10;;;9.35;;
81801;SDS011;71199;52.490;5.448;2024-02-26T06:31:19;15.82;;;8.57;;
81801;SDS011;71199;52.490;5.448;2024-02-26T06:33:47;13.98;;;7.22;;
81801;SDS011;71199;52.490;5.448;2024-02-26T06:36:12;16.10;;;8.52;;
81801;SDS011;71199;52.490;5.448;2024-02-26T06:38:38;18.67;;;8.67;;
81801;SDS011;71199;52.490;5.448;2024-02-26T06:41:03;17.07;;;9.43;;
81801;SDS011;71199;52.490;5.448;2024-02-26T06:43:28;16.45;;;8.60;;
81801;SDS011;71199;52.490;5.448;2024-02-26T06:45:54;12.57;;;7.37;;
81801;SDS011;71199;52.490;5.448;2024-02-26T06:48:19;13.53;;;6.63;;
81801;SDS011;71199;52.490;5.448;2024-02-26T06:50:45;15.85;;;8.02;;
81801;SDS011;71199;52.490;5.448;2024-02-26T06:53:10;13.73;;;6.00;;
81801;SDS011;71199;52.490;5.448;2024-02-26T06:55:35;12.33;;;7.07;;
81801;SDS011;71199;52.490;5.448;2024-02-26T06:58:02;11.05;;;5.13;;
81801;SDS011;71199;52.490;5.448;2024-02-26T07:00:27;13.15;;;6.45;;
81801;SDS011;71199;52.490;5.448;2024-02-26T07:02:53;12.90;;;6.33;;
81801;SDS011;71199;52.490;5.448;2024-02-26T07:05:18;14.18;;;6.93;;
81801;SDS011;71199;52.490;5.448;2024-02-26T07:07:44;13.07;;;5.93;;
81801;SDS011;71199;52.490;5.448;2024-02-26T07:10:09;12.07;;;5.15;;
81801;SDS011;71199;52.490;5.448;2024-02-26T07:12:37;11.77;;;5.78;;
81801;SDS011;71199;52.490;5.448;2024-02-26T07:15:03;11.85;;;5.97;;
81801;SDS011;71199;52.490;5.448;2024-02-26T07:17:30;14.88;;;7.25;;
81801;SDS011;71199;52.490;5.448;2024-02-26T07:19:55;11.63;;;6.25;;
81801;SDS011;71199;52.490;5.448;2024-02-26T07:22:20;10.97;;;6.13;;
81801;SDS011;71199;52.490;5.448;2024-02-26T07:24:46;8.52;;;4.53;;
81801;SDS011;71199;52.490;5.448;2024-02-26T07:27:11;9.43;;;4.22;;
81801;SDS011;71199;52.490;5.448;2024-02-26T07:29:37;10.73;;;4.95;;
81801;SDS011;71199;52.490;5.448;2024-02-26T07:32:02;10.13;;;4.90;;
81801;SDS011;71199;52.490;5.448;2024-02-26T07:34:28;6.05;;;3.88;;
81801;SDS011;71199;52.490;5.448;2024-02-26T07:36:55;6.93;;;3.50;;
81801;SDS011;71199;52.490;5.448;2024-02-26T07:39:21;6.90;;;3.67;;
81801;SDS011;71199;52.490;5.448;2024-02-26T07:41:47;8.15;;;4.35;;
81801;SDS011;71199;52.490;5.448;2024-02-26T07:44:14;7.50;;;4.53;;
81801;SDS011;71199;52.490;5.448;2024-02-26T07:46:40;6.90;;;3.90;;
81801;SDS011;71199;52.490;5.448;2024-02-26T07:49:06;5.45;;;3.40;;
81801;SDS011;71199;52.490;5.448;2024-02-26T07:51:31;7.47;;;3.75;;
81801;SDS011;71199;52.490;5.448;2024-02-26T07:53:56;8.47;;;3.93;;
81801;SDS011;71199;52.490;5.448;2024-02-26T07:56:22;7.23;;;4.47;;
81801;SDS011;71199;52.490;5.448;2024-02-26T07:58:47;9.50;;;4.07;;
81801;SDS011;71199;52.490;5.448;2024-02-26T08:01:13;6.03;;;3.30;;
81801;SDS011;71199;52.490;5.448;2024-02-26T08:03:39;8.07;;;4.25;;
81801;SDS011;71199;52.490;5.448;2024-02-26T08:06:04;5.68;;;2.67;;
81801;SDS011;71199;52.490;5.448;2024-02-26T08:08:30;6.13;;;3.30;;
81801;SDS011;71199;52.490;5.448;2024-02-26T08:10:55;5.53;;;3.10;;
81801;SDS011;71199;52.490;5.448;2024-02-26T08:13:21;6.40;;;3.83;;
81801;SDS011;71199;52.490;5.448;2024-02-26T08:15:46;8.67;;;3.97;;
81801;SDS011;71199;52.490;5.448;2024-02-26T08:18:11;8.50;;;3.87;;
81801;SDS011;71199;52.490;5.448;2024-02-26T08:20:37;6.33;;;3.47;;
81801;SDS011;71199;52.490;5.448;2024-02-26T08:23:02;7.03;;;3.60;;
81801;SDS011;71199;52.490;5.448;2024-02-26T08:25:27;6.55;;;3.22;;
81801;SDS011;71199;52.490;5.448;2024-02-26T08:27:53;8.90;;;2.87;;
81801;SDS011;71199;52.490;5.448;2024-02-26T08:30:18;6.30;;;3.47;;
81801;SDS011;71199;52.490;5.448;2024-02-26T08:32:44;4.95;;;3.00;;
81801;SDS011;71199;52.490;5.448;2024-02-26T08:35:12;6.45;;;3.85;;
81801;SDS011;71199;52.490;5.448;2024-02-26T08:37:38;5.97;;;3.55;;
81801;SDS011;71199;52.490;5.448;2024-02-26T08:40:04;7.70;;;4.15;;
81801;SDS011;71199;52.490;5.448;2024-02-26T08:42:30;6.82;;;3.22;;
81801;SDS011;71199;52.490;5.448;2024-02-26T08:44:55;6.07;;;4.13;;
81801;SDS011;71199;52.490;5.448;2024-02-26T08:47:21;4.95;;;3.03;;
81801;SDS011;71199;52.490;5.448;2024-02-26T08:49:46;11.40;;;3.73;;
81801;SDS011;71199;52.490;5.448;2024-02-26T08:52:12;5.50;;;3.50;;
81801;SDS011;71199;52.490;5.448;2024-02-26T08:54:37;6.20;;;3.90;;
81801;SDS011;71199;52.490;5.448;2024-02-26T08:57:03;7.78;;;3.53;;
81801;SDS011;71199;52.490;5.448;2024-02-26T08:59:28;5.85;;;3.60;;
81801;SDS011;71199;52.490;5.448;2024-02-26T09:01:54;6.17;;;3.70;;
81801;SDS011;71199;52.490;5.448;2024-02-26T09:04:19;6.78;;;3.80;;
81801;SDS011;71199;52.490;5.448;2024-02-26T09:06:45;5.25;;;3.35;;
81801;SDS011;71199;52.490;5.448;2024-02-26T09:09:10;5.97;;;3.30;;
81801;SDS011;71199;52.490;5.448;2024-02-26T09:11:36;10.98;;;4.20;;
81801;SDS011;71199;52.490;5.448;2024-02-26T09:14:01;9.73;;;4.10;;
81801;SDS011;71199;52.490;5.448;2024-02-26T09:16:28;7.47;;;3.65;;
81801;SDS011;71199;52.490;5.448;2024-02-26T09:18:54;6.80;;;3.17;;
81801;SDS011;71199;52.490;5.448;2024-02-26T09:21:19;8.50;;;3.77;;
81801;SDS011;71199;52.490;5.448;2024-02-26T09:23:48;6.20;;;3.92;;
81801;SDS011;71199;52.490;5.448;2024-02-26T09:26:14;6.35;;;3.88;;
81801;SDS011;71199;52.490;5.448;2024-02-26T09:28:40;8.50;;;3.75;;
81801;SDS011;71199;52.490;5.448;2024-02-26T09:31:05;7.50;;;3.78;;
81801;SDS011;71199;52.490;5.448;2024-02-26T09:33:34;6.32;;;3.65;;
81801;SDS011;71199;52.490;5.448;2024-02-26T09:36:00;5.70;;;3.42;;
81801;SDS011;71199;52.490;5.448;2024-02-26T09:38:28;6.35;;;3.67;;
81801;SDS011;71199;52.490;5.448;2024-02-26T09:40:54;7.93;;;3.50;;
81801;SDS011;71199;52.490;5.448;2024-02-26T09:43:22;8.57;;;5.07;;
81801;SDS011;71199;52.490;5.448;2024-02-26T09:45:50;6.50;;;3.75;;
81801;SDS011;71199;52.490;5.448;2024-02-26T09:48:18;6.32;;;3.45;;
81801;SDS011;71199;52.490;5.448;2024-02-26T09:50:44;5.47;;;3.25;;
81801;SDS011;71199;52.490;5.448;2024-02-26T09:53:11;8.82;;;3.67;;
81801;SDS011;71199;52.490;5.448;2024-02-26T09:55:39;6.53;;;3.10;;
81801;SDS011;71199;52.490;5.448;2024-02-26T09:58:05;9.05;;;3.38;;
81801;SDS011;71199;52.490;5.448;2024-02-26T10:00:31;6.82;;;3.30;;
81801;SDS011;71199;52.490;5.448;2024-02-26T10:03:03;7.75;;;3.45;;
81801;SDS011;71199;52.490;5.448;2024-02-26T10:05:29;5.75;;;3.55;;
81801;SDS011;71199;52.490;5.448;2024-02-26T10:07:57;4.85;;;3.10;;
81801;SDS011;71199;52.490;5.448;2024-02-26T10:10:23;5.55;;;3.08;;
81801;SDS011;71199;52.490;5.448;2024-02-26T10:12:49;6.53;;;3.63;;
81801;SDS011;71199;52.490;5.448;2024-02-26T10:15:14;6.35;;;3.72;;
81801;SDS011;71199;52.490;5.448;2024-02-26T10:17:40;6.43;;;4.18;;
81801;SDS011;71199;52.490;5.448;2024-02-26T10:20:13;8.88;;;3.45;;
81801;SDS011;71199;52.490;5.448;2024-02-26T10:22:40;7.38;;;3.80;;
81801;SDS011;71199;52.490;5.448;2024-02-26T10:25:07;4.38;;;2.75;;
81801;SDS011;71199;52.490;5.448;2024-02-26T10:27:33;6.50;;;3.60;;
81801;SDS011;71199;52.490;5.448;2024-02-26T10:30:02;6.88;;;4.15;;
81801;SDS011;71199;52.490;5.448;2024-02-26T10:32:29;8.45;;;3.53;;
81801;SDS011;71199;52.490;5.448;2024-02-26T10:34:56;5.88;;;3.35;;
81801;SDS011;71199;52.490;5.448;2024-02-26T10:37:22;7.55;;;3.13;;
81801;SDS011;71199;52.490;5.448;2024-02-26T10:39:48;7.00;;;3.70;;
81801;SDS011;71199;52.490;5.448;2024-02-26T10:42:13;7.63;;;3.97;;
81801;SDS011;71199;52.490;5.448;2024-02-26T10:44:40;4.10;;;2.55;;
81801;SDS011;71199;52.490;5.448;2024-02-26T10:47:07;6.32;;;3.78;;
81801;SDS011;71199;52.490;5.448;2024-02-26T10:49:33;6.07;;;3.88;;
81801;SDS011;71199;52.490;5.448;2024-02-26T10:52:00;5.78;;;3.45;;
81801;SDS011;71199;52.490;5.448;2024-02-26T10:54:27;8.75;;;3.65;;
81801;SDS011;71199;52.490;5.448;2024-02-26T10:56:55;5.75;;;3.25;;
81801;SDS011;71199;52.490;5.448;2024-02-26T10:59:22;5.30;;;3.13;;
81801;SDS011;71199;52.490;5.448;2024-02-26T11:01:48;3.70;;;2.40;;
81801;SDS011;71199;52.490;5.448;2024-02-26T11:04:15;5.05;;;2.70;;
81801;SDS011;71199;52.490;5.448;2024-02-26T11:06:41;7.60;;;3.83;;
81801;SDS011;71199;52.490;5.448;2024-02-26T11:09:07;6.68;;;4.20;;
81801;SDS011;71199;52.490;5.448;2024-02-26T11:11:39;5.90;;;3.42;;
81801;SDS011;71199;52.490;5.448;2024-02-26T11:14:05;4.93;;;3.42;;
81801;SDS011;71199;52.490;5.448;2024-02-26T11:16:33;7.82;;;3.72;;
81801;SDS011;71199;52.490;5.448;2024-02-26T11:19:00;5.20;;;3.35;;
81801;SDS011;71199;52.490;5.448;2024-02-26T11:21:27;6.97;;;3.20;;
81801;SDS011;71199;52.490;5.448;2024-02-26T11:24:03;5.65;;;3.47;;
81801;SDS011;71199;52.490;5.448;2024-02-26T11:26:30;5.13;;;3.08;;
81801;SDS011;71199;52.490;5.448;2024-02-26T11:28:56;4.97;;;2.85;;
81801;SDS011;71199;52.490;5.448;2024-02-26T11:31:24;5.38;;;2.83;;
81801;SDS011;71199;52.490;5.448;2024-02-26T11:33:52;5.18;;;3.17;;
81801;SDS011;71199;52.490;5.448;2024-02-26T11:36:19;5.05;;;3.00;;
81801;SDS011;71199;52.490;5.448;2024-02-26T11:38:46;9.13;;;3.33;;
81801;SDS011;71199;52.490;5.448;2024-02-26T11:41:14;7.85;;;3.97;;
81801;SDS011;71199;52.490;5.448;2024-02-26T11:43:53;6.13;;;3.50;;
81801;SDS011;71199;52.490;5.448;2024-02-26T11:51:56;5.72;;;3.17;;
81801;SDS011;71199;52.490;5.448;2024-02-26T11:59:47;7.53;;;3.58;;
81801;SDS011;71199;52.490;5.448;2024-02-26T12:02:18;5.80;;;3.13;;
81801;SDS011;71199;52.490;5.448;2024-02-26T12:05:22;5.65;;;3.20;;
81801;SDS011;71199;52.490;5.448;2024-02-26T12:07:54;5.78;;;3.17;;
81801;SDS011;71199;52.490;5.448;2024-02-26T12:10:24;7.32;;;3.65;;
81801;SDS011;71199;52.490;5.448;2024-02-26T12:13:12;6.93;;;3.47;;
81801;SDS011;71199;52.490;5.448;2024-02-26T12:15:39;7.25;;;3.35;;
81801;SDS011;71199;52.490;5.448;2024-02-26T12:18:07;7.00;;;3.50;;
81801;SDS011;71199;52.490;5.448;2024-02-26T12:20:35;6.10;;;3.60;;
81801;SDS011;71199;52.490;5.448;2024-02-26T12:23:03;5.10;;;3.20;;
81801;SDS011;71199;52.490;5.448;2024-02-26T12:25:29;4.93;;;2.50;;
81801;SDS011;71199;52.490;5.448;2024-02-26T12:27:56;4.68;;;2.50;;
81801;SDS011;71199;52.490;5.448;2024-02-26T12:30:22;4.32;;;2.75;;
81801;SDS011;71199;52.490;5.448;2024-02-26T12:32:49;4.75;;;2.95;;
81801;SDS011;71199;52.490;5.448;2024-02-26T12:35:15;3.65;;;2.10;;
81801;SDS011;71199;52.490;5.448;2024-02-26T12:37:42;5.57;;;2.70;;
81801;SDS011;71199;52.490;5.448;2024-02-26T12:40:08;4.18;;;2.65;;
81801;SDS011;71199;52.490;5.448;2024-02-26T12:42:34;5.47;;;2.45;;
81801;SDS011;71199;52.490;5.448;2024-02-26T12:45:07;4.63;;;2.88;;
81801;SDS011;71199;52.490;5.448;2024-02-26T12:50:06;6.28;;;2.65;;
81801;SDS011;71199;52.490;5.448;2024-02-26T12:52:33;5.88;;;3.30;;
81801;SDS011;71199;52.490;5.448;2024-02-26T12:55:01;3.60;;;2.45;;
81801;SDS011;71199;52.490;5.448;2024-02-26T12:57:28;3.47;;;2.00;;
81801;SDS011;71199;52.490;5.448;2024-02-26T12:59:55;5.78;;;2.67;;
81801;SDS011;71199;52.490;5.448;2024-02-26T13:02:21;3.60;;;2.58;;
81801;SDS011;71199;52.490;5.448;2024-02-26T13:04:47;4.10;;;2.55;;
81801;SDS011;71199;52.490;5.448;2024-02-26T13:07:13;4.63;;;2.55;;
81801;SDS011;71199;52.490;5.448;2024-02-26T13:09:38;3.67;;;2.20;;
81801;SDS011;71199;52.490;5.448;2024-02-26T13:12:04;3.63;;;2.03;;
81801;SDS011;71199;52.490;5.448;2024-02-26T13:14:31;10.63;;;3.42;;
81801;SDS011;71199;52.490;5.448;2024-02-26T13:16:58;3.47;;;2.08;;
81801;SDS011;71199;52.490;5.448;2024-02-26T13:19:25;4.22;;;2.55;;
81801;SDS011;71199;52.490;5.448;2024-02-26T13:21:51;4.78;;;2.10;;
81801;SDS011;71199;52.490;5.448;2024-02-26T13:24:17;5.68;;;2.72;;
81801;SDS011;71199;52.490;5.448;2024-02-26T13:26:44;11.55;;;3.63;;
81801;SDS011;71199;52.490;5.448;2024-02-26T13:29:16;87.93;;;13.10;;
81801;SDS011;71199;52.490;5.448;2024-02-26T13:31:42;3.72;;;2.20;;
81801;SDS011;71199;52.490;5.448;2024-02-26T13:34:07;3.80;;;2.20;;
81801;SDS011;71199;52.490;5.448;2024-02-26T13:36:32;3.80;;;2.30;;
81801;SDS011;71199;52.490;5.448;2024-02-26T13:38:58;3.83;;;1.93;;
81801;SDS011;71199;52.490;5.448;2024-02-26T13:41:23;3.42;;;1.90;;
81801;SDS011;71199;52.490;5.448;2024-02-26T13:43:49;4.88;;;2.50;;
81801;SDS011;71199;52.490;5.448;2024-02-26T13:46:15;17.33;;;4.38;;
81801;SDS011;71199;52.490;5.448;2024-02-26T13:48:42;9.20;;;2.50;;
81801;SDS011;71199;52.490;5.448;2024-02-26T13:51:07;4.32;;;2.20;;
81801;SDS011;71199;52.490;5.448;2024-02-26T13:53:33;6.27;;;2.67;;
81801;SDS011;71199;52.490;5.448;2024-02-26T13:55:58;3.85;;;2.42;;
81801;SDS011;71199;52.490;5.448;2024-02-26T14:00:52;4.43;;;2.92;;
81801;SDS011;71199;52.490;5.448;2024-02-26T14:03:18;4.45;;;2.17;;
81801;SDS011;71199;52.490;5.448;2024-02-26T14:05:44;8.60;;;2.70;;
81801;SDS011;71199;52.490;5.448;2024-02-26T14:08:09;12.15;;;3.42;;
81801;SDS011;71199;52.490;5.448;2024-02-26T14:10:35;10.53;;;4.27;;
81801;SDS011;71199;52.490;5.448;2024-02-26T14:13:01;7.10;;;3.15;;
81801;SDS011;71199;52.490;5.448;2024-02-26T14:15:27;3.70;;;2.65;;
81801;SDS011;71199;52.490;5.448;2024-02-26T14:17:53;7.57;;;3.05;;
81801;SDS011;71199;52.490;5.448;2024-02-26T14:22:47;6.65;;;2.65;;
81801;SDS011;71199;52.490;5.448;2024-02-26T14:25:13;6.60;;;3.00;;
81801;SDS011;71199;52.490;5.448;2024-02-26T14:27:38;8.80;;;2.67;;
81801;SDS011;71199;52.490;5.448;2024-02-26T14:30:04;5.77;;;2.90;;
81801;SDS011;71199;52.490;5.448;2024-02-26T14:32:30;5.65;;;2.70;;
81801;SDS011;71199;52.490;5.448;2024-02-26T14:34:59;5.15;;;2.83;;
81801;SDS011;71199;52.490;5.448;2024-02-26T14:37:25;5.22;;;2.97;;
81801;SDS011;71199;52.490;5.448;2024-02-26T14:39:50;5.83;;;3.60;;
81801;SDS011;71199;52.490;5.448;2024-02-26T14:42:17;5.65;;;3.00;;
81801;SDS011;71199;52.490;5.448;2024-02-26T14:44:43;7.20;;;3.20;;
81801;SDS011;71199;52.490;5.448;2024-02-26T14:47:09;6.68;;;3.65;;
81801;SDS011;71199;52.490;5.448;2024-02-26T14:49:34;4.95;;;3.38;;
81801;SDS011;71199;52.490;5.448;2024-02-26T14:52:00;5.57;;;2.95;;
81801;SDS011;71199;52.490;5.448;2024-02-26T14:54:25;5.23;;;2.60;;
81801;SDS011;71199;52.490;5.448;2024-02-26T14:56:51;7.28;;;3.50;;
81801;SDS011;71199;52.490;5.448;2024-02-26T14:59:16;5.10;;;2.80;;
81801;SDS011;71199;52.490;5.448;2024-02-26T15:01:41;5.30;;;3.17;;
81801;SDS011;71199;52.490;5.448;2024-02-26T15:04:07;5.07;;;3.28;;